Accueil
METAR-TAF:

Aéroports :

Bauru, São Paulo, Brésil

latitude: 22-19S, longitude: 049-04W, altitude: 590 m

Observation

Le bulletin a été fait il y a 1 heure et 22 minutes, à 08:00 UTC
Vent 8 kt de est
Température 16°C
Humidité 94%
Pression 1021 hPa
Visibilité 10 km ou plus
pas de nuages en-dessous de 1500 mètres et pas de cumulonimbus.

METAR: SBBU 310800Z 08008KT CAVOK 16/15 Q1021

Heure: 06:22 (09:22 UTC)

Prévision

Le bulletin a été fait il y a 5 heures et 52 minutes, à 03:30 UTC
Prévision valable du 31 à 06 UTC au 31 à 18 UTC
Vent 8 kt de est
Visibilité 10 km ou plus
pas de nuages en-dessous de 1500 mètres et pas de cumulonimbus.

TAF: SBBU 310330Z 3106/3118 10008KT CAVOK TN15/3110Z TX27/3118Z RMK PDV

METAR-TAF

Observations et prévisions météorologiques de plus de 4000 aéroports (messages METAR et TAF).

Les stations disponibles sont représentées par des disques jaunes et rouges sur la carte.

Passer la souris dessus pour voir le nom de la station.

Cliquer dessus pour voir les observations et prévisions météorologiques.

Pour changer de carte: cliquez sur les boutons verts avec une croix noire pour zoomer, sur le bouton vert avec un tiret pour effectuer un zoom arrière, ou sur les flèches vertes pour les cartes adjacentes.


METAR-TAF: